createdAt,value
2023-10-25T00:00:33.826Z,97512.03
2023-10-25T00:01:36.321Z,97512.81
2023-10-25T00:02:39.713Z,97510.13
2023-10-25T00:03:42.168Z,97518.22
2023-10-25T00:04:44.707Z,97513.13
2023-10-25T00:05:47.269Z,97517.41
2023-10-25T00:06:49.673Z,97516.16
2023-10-25T00:07:51.947Z,97518.84
2023-10-25T00:08:54.262Z,97516.63
2023-10-25T00:09:57.613Z,97525.03
2023-10-25T00:11:09.634Z,97521.38
2023-10-25T00:12:11.952Z,97521.53
2023-10-25T00:13:14.667Z,97521.53
2023-10-25T00:14:17.345Z,97521.84
2023-10-25T00:15:19.894Z,97513.25
2023-10-25T00:16:22.345Z,97521.06
2023-10-25T00:17:24.728Z,97517.84
2023-10-25T00:18:28.259Z,97513.25
2023-10-25T00:19:30.937Z,97513.56
2023-10-25T00:20:33.424Z,97507.38
2023-10-25T00:21:35.756Z,97512.47
2023-10-25T00:22:38.336Z,97515.47
2023-10-25T00:23:40.754Z,97513.09
2023-10-25T00:24:43.161Z,97517.69
2023-10-25T00:25:45.616Z,97519.28
2023-10-25T00:26:47.971Z,97515.00
2023-10-25T00:27:50.385Z,97504.84
2023-10-25T00:28:53.256Z,97508.66
2023-10-25T00:29:55.545Z,97507.53
2023-10-25T00:30:58.192Z,97505.94
2023-10-25T00:32:00.958Z,97509.75
2023-10-25T00:33:04.016Z,97505.47
2023-10-25T00:34:06.723Z,97505.47
2023-10-25T00:35:10.131Z,97508.66
2023-10-25T00:36:12.539Z,97501.66
2023-10-25T00:37:15.257Z,97509.75
2023-10-25T00:38:17.582Z,97500.06
2023-10-25T00:39:19.989Z,97501.16
2023-10-25T00:40:22.640Z,97500.34
2023-10-25T00:41:25.028Z,97498.47
2023-10-25T00:42:27.471Z,97498.47
2023-10-25T00:43:29.820Z,97499.56
2023-10-25T00:44:32.356Z,97494.19
2023-10-25T00:45:35.597Z,97498.78
2023-10-25T00:46:38.644Z,97497.88
2023-10-25T00:47:44.408Z,97504.34
2023-10-25T00:48:49.198Z,97497.38
2023-10-25T00:49:52.967Z,97499.25
2023-10-25T00:50:55.688Z,97502.25
2023-10-25T00:51:58.139Z,97503.38
2023-10-25T00:53:00.527Z,97500.69
2023-10-25T00:54:03.617Z,97497.97
2023-10-25T00:55:06.524Z,97498.78
2023-10-25T00:56:12.060Z,97500.69
2023-10-25T00:57:15.725Z,97504.16
2023-10-25T00:58:18.327Z,97496.88
2023-10-25T00:59:22.717Z,97497.97
2023-10-25T01:00:26.664Z,97504.47
2023-10-25T01:01:30.298Z,97508.75
2023-10-25T01:02:32.777Z,97504.47
2023-10-25T01:03:35.286Z,97505.91
2023-10-25T01:04:38.203Z,97505.09
2023-10-25T01:05:42.249Z,97508.91
2023-10-25T01:06:44.772Z,97499.72
2023-10-25T01:07:47.087Z,97500.50
2023-10-25T01:08:50.213Z,97502.25
2023-10-25T01:09:52.694Z,97498.72
2023-10-25T01:10:55.395Z,97497.66
2023-10-25T01:11:58.048Z,97500.34
2023-10-25T01:13:00.928Z,97492.84
2023-10-25T01:14:03.343Z,97499.53
2023-10-25T01:15:06.158Z,97497.13
2023-10-25T01:16:08.872Z,97492.38
2023-10-25T01:17:11.722Z,97499.03
2023-10-25T01:18:15.611Z,97495.22
2023-10-25T01:19:18.308Z,97499.81
2023-10-25T01:20:20.835Z,97503.16
2023-10-25T01:21:24.028Z,97505.84
2023-10-25T01:22:27.081Z,97502.84
2023-10-25T01:23:29.444Z,97503.16
2023-10-25T01:24:32.113Z,97505.53
2023-10-25T01:25:34.799Z,97501.25
2023-10-25T01:26:38.754Z,97501.56
2023-10-25T01:27:41.709Z,97497.28
2023-10-25T01:28:44.386Z,97500.75
2023-10-25T01:29:47.042Z,97506.94
2023-10-25T01:30:49.592Z,97502.66
2023-10-25T01:31:51.977Z,97507.75
2023-10-25T01:32:55.051Z,97497.28
2023-10-25T01:33:57.416Z,97499.66
2023-10-25T01:35:00.256Z,97493.00
2023-10-25T01:36:02.864Z,97489.50
2023-10-25T01:37:05.344Z,97497.28
2023-10-25T01:38:07.718Z,97490.31
2023-10-25T01:39:10.065Z,97487.13
2023-10-25T01:40:13.212Z,97479.53
2023-10-25T01:41:17.733Z,97493.78
2023-10-25T01:42:20.356Z,97474.75
2023-10-25T01:43:24.234Z,97485.72
2023-10-25T01:44:26.645Z,97483.81
2023-10-25T01:45:29.018Z,97481.13
2023-10-25T01:46:31.928Z,97477.94
2023-10-25T01:47:34.434Z,97476.03
2023-10-25T01:48:38.876Z,97476.03
2023-10-25T01:49:41.715Z,97476.34
2023-10-25T01:50:44.322Z,97476.63
2023-10-25T01:51:46.687Z,97479.31
2023-10-25T01:52:49.218Z,97476.47
2023-10-25T01:53:51.542Z,97478.69
2023-10-25T01:54:53.944Z,97479.16
2023-10-25T01:55:56.672Z,97486.13
2023-10-25T01:56:59.310Z,97488.81
2023-10-25T01:58:01.652Z,97490.72
2023-10-25T01:59:04.065Z,97488.03
2023-10-25T02:00:07.915Z,97486.44
2023-10-25T02:01:10.491Z,97489.94
2023-10-25T02:02:14.584Z,97487.72
2023-10-25T02:03:17.317Z,97482.97
2023-10-25T02:04:19.697Z,97492.94
2023-10-25T02:05:22.098Z,97482.97
2023-10-25T02:06:24.479Z,97490.25
2023-10-25T02:07:26.841Z,97488.34
2023-10-25T02:08:29.496Z,97487.06
2023-10-25T02:09:32.269Z,97496.44
2023-10-25T02:10:37.486Z,97493.25
2023-10-25T02:11:40.137Z,97489.75
2023-10-25T02:12:42.450Z,97492.16
2023-10-25T02:13:45.112Z,97487.69
2023-10-25T02:14:47.785Z,97492.78
2023-10-25T02:15:50.205Z,97487.38
2023-10-25T02:16:52.690Z,97487.38
2023-10-25T02:17:56.618Z,97486.28
2023-10-25T02:18:59.139Z,97485.47
2023-10-25T02:20:01.787Z,97484.19
2023-10-25T02:21:05.317Z,97486.06
2023-10-25T02:22:07.705Z,97493.06
2023-10-25T02:23:10.049Z,97494.97
2023-10-25T02:24:13.456Z,97496.06
2023-10-25T02:25:15.928Z,97493.34
2023-10-25T02:26:18.607Z,97488.78
2023-10-25T02:27:21.074Z,97490.19
2023-10-25T02:28:23.476Z,97489.34
2023-10-25T02:29:26.129Z,97480.50
2023-10-25T02:30:28.513Z,97483.19
2023-10-25T02:31:30.882Z,97481.59
2023-10-25T02:32:33.659Z,97472.72
2023-10-25T02:33:35.973Z,97474.63
2023-10-25T02:34:38.677Z,97467.66
2023-10-25T02:35:40.993Z,97466.84
2023-10-25T02:36:43.668Z,97467.66
2023-10-25T02:37:46.144Z,97468.75
2023-10-25T02:38:49.648Z,97458.78
2023-10-25T02:39:51.986Z,97468.13
2023-10-25T02:40:54.828Z,97463.06
2023-10-25T02:41:57.289Z,97459.56
2023-10-25T02:42:59.775Z,97457.19
2023-10-25T02:44:02.374Z,97456.06
2023-10-25T02:45:05.374Z,97454.50
2023-10-25T02:46:10.964Z,97450.69
2023-10-25T02:47:13.938Z,97450.38
2023-10-25T02:48:16.397Z,97449.91
2023-10-25T02:49:18.947Z,97451.00
2023-10-25T02:50:21.398Z,97453.69
2023-10-25T02:51:23.723Z,97454.81
2023-10-25T02:52:26.672Z,97452.13
2023-10-25T02:53:29.025Z,97447.53
2023-10-25T02:54:31.783Z,97453.19
2023-10-25T02:55:35.140Z,97456.38
2023-10-25T02:56:37.895Z,97454.28
2023-10-25T02:57:40.282Z,97452.72
2023-10-25T02:58:42.634Z,97450.81
2023-10-25T02:59:45.145Z,97454.00
2023-10-25T03:00:47.548Z,97448.63
2023-10-25T03:01:50.059Z,97447.81
2023-10-25T03:02:52.524Z,97450.00
2023-10-25T03:03:55.494Z,97447.31
2023-10-25T03:04:59.883Z,97448.91
2023-10-25T03:06:02.289Z,97450.81
2023-10-25T03:07:05.100Z,97443.03
2023-10-25T03:08:07.773Z,97445.41
2023-10-25T03:09:11.273Z,97435.75
2023-10-25T03:10:13.727Z,97441.13
2023-10-25T03:11:16.130Z,97439.56
2023-10-25T03:12:18.751Z,97432.75
2023-10-25T03:13:21.256Z,97431.00
2023-10-25T03:14:24.124Z,97432.91
2023-10-25T03:15:26.608Z,97419.44
2023-10-25T03:16:29.045Z,97424.81
2023-10-25T03:17:31.697Z,97427.50
2023-10-25T03:18:34.963Z,97419.44
2023-10-25T03:19:37.771Z,97418.63
2023-10-25T03:20:40.173Z,97419.44
2023-10-25T03:21:42.582Z,97417.06
2023-10-25T03:22:44.890Z,97416.25
2023-10-25T03:23:47.243Z,97418.63
2023-10-25T03:24:49.610Z,97415.94
2023-10-25T03:25:52.309Z,97413.25
2023-10-25T03:26:55.667Z,97411.97
2023-10-25T03:27:58.145Z,97420.84
2023-10-25T03:29:00.553Z,97416.84
2023-10-25T03:30:04.068Z,97417.06
2023-10-25T03:31:07.454Z,97409.28
2023-10-25T03:32:09.811Z,97409.28
2023-10-25T03:33:12.155Z,97407.38
2023-10-25T03:34:16.251Z,97407.88
2023-10-25T03:35:18.964Z,97405.78
2023-10-25T03:36:21.345Z,97402.31
2023-10-25T03:37:23.702Z,97407.97
2023-10-25T03:38:26.184Z,97410.97
2023-10-25T03:39:28.834Z,97416.38
2023-10-25T03:40:31.320Z,97409.09
2023-10-25T03:41:33.711Z,97407.50
2023-10-25T03:42:36.722Z,97408.78
2023-10-25T03:43:39.321Z,97416.06
2023-10-25T03:44:41.654Z,97411.47
2023-10-25T03:45:44.116Z,97415.47
2023-10-25T03:46:46.928Z,97414.47
2023-10-25T03:47:49.631Z,97414.47
2023-10-25T03:48:52.350Z,97413.88
2023-10-25T03:49:54.824Z,97416.56
2023-10-25T03:50:57.161Z,97416.84
2023-10-25T03:51:59.597Z,97405.00
2023-10-25T03:53:01.978Z,97401.50
2023-10-25T03:54:04.545Z,97403.09
2023-10-25T03:55:08.573Z,97400.41
2023-10-25T03:56:11.048Z,97393.41
2023-10-25T03:57:13.636Z,97388.53
2023-10-25T03:58:16.248Z,97392.34
2023-10-25T03:59:18.539Z,97389.34
2023-10-25T04:00:21.126Z,97384.75
2023-10-25T04:01:23.696Z,97380.78
2023-10-25T04:02:26.439Z,97380.47
2023-10-25T04:03:29.542Z,97379.66
2023-10-25T04:04:31.957Z,97379.66
2023-10-25T04:05:34.354Z,97374.09
2023-10-25T04:06:37.186Z,97375.97
2023-10-25T04:07:40.291Z,97380.56
2023-10-25T04:08:42.565Z,97375.97
2023-10-25T04:09:45.332Z,97375.97
2023-10-25T04:10:55.927Z,97372.88
2023-10-25T04:11:58.203Z,97370.59
2023-10-25T04:13:00.488Z,97369.81
2023-10-25T04:14:03.150Z,97369.81
2023-10-25T04:15:06.018Z,97370.13
2023-10-25T04:16:10.696Z,97364.44
2023-10-25T04:17:13.837Z,97365.22
2023-10-25T04:18:16.483Z,97365.22
2023-10-25T04:19:19.046Z,97369.81
2023-10-25T04:20:21.829Z,97365.22
2023-10-25T04:21:24.170Z,97370.59
2023-10-25T04:22:27.106Z,97369.00
2023-10-25T04:23:32.878Z,97361.94
2023-10-25T04:24:35.619Z,97366.00
2023-10-25T04:25:37.899Z,97364.09
2023-10-25T04:26:40.548Z,97360.63
2023-10-25T04:27:42.976Z,97361.41
2023-10-25T04:28:46.091Z,97361.41
2023-10-25T04:29:48.436Z,97363.31
2023-10-25T04:30:51.278Z,97359.84
2023-10-25T04:31:53.658Z,97366.00
2023-10-25T04:32:56.151Z,97363.00
2023-10-25T04:34:00.756Z,97356.81
2023-10-25T04:35:03.133Z,97363.00
2023-10-25T04:36:07.068Z,97359.22
2023-10-25T04:37:09.694Z,97360.03
2023-10-25T04:38:12.138Z,97355.25
2023-10-25T04:39:14.437Z,97365.22
2023-10-25T04:40:16.959Z,97360.31
2023-10-25T04:41:19.414Z,97359.53
2023-10-25T04:42:22.142Z,97350.66
2023-10-25T04:43:24.865Z,97348.28
2023-10-25T04:44:28.839Z,97354.13
2023-10-25T04:45:31.262Z,97347.97
2023-10-25T04:46:33.766Z,97351.16
2023-10-25T04:47:36.188Z,97350.66
2023-10-25T04:48:38.597Z,97346.06
2023-10-25T04:49:41.059Z,97345.25
2023-10-25T04:50:45.146Z,97343.69
2023-10-25T04:51:47.532Z,97349.06
2023-10-25T04:52:50.751Z,97352.53
2023-10-25T04:53:53.311Z,97348.28
2023-10-25T04:54:55.988Z,97347.16
2023-10-25T04:55:58.310Z,97351.44
2023-10-25T04:57:00.649Z,97347.16
2023-10-25T04:58:03.664Z,97347.47
2023-10-25T04:59:06.563Z,97344.16
2023-10-25T05:00:13.265Z,97342.56
2023-10-25T05:01:16.476Z,97341.47
2023-10-25T05:02:19.157Z,97341.47
2023-10-25T05:03:22.706Z,97334.50
2023-10-25T05:04:25.408Z,97335.28
2023-10-25T05:05:27.805Z,97332.91
2023-10-25T05:06:30.752Z,97334.81
2023-10-25T05:07:33.575Z,97333.69
2023-10-25T05:08:36.909Z,97341.78
2023-10-25T05:09:39.777Z,97333.69
2023-10-25T05:10:42.704Z,97331.00
2023-10-25T05:11:56.250Z,97326.31
2023-10-25T05:12:58.914Z,97328.00
2023-10-25T05:14:01.734Z,97334.50
2023-10-25T05:15:04.410Z,97329.13
2023-10-25T05:16:07.304Z,97322.13
2023-10-25T05:17:11.092Z,97314.84
2023-10-25T05:18:13.789Z,97320.56
2023-10-25T05:19:16.513Z,97319.75
2023-10-25T05:20:19.486Z,97315.16
2023-10-25T05:21:27.414Z,97310.28
2023-10-25T05:22:30.989Z,97306.31
2023-10-25T05:23:35.629Z,97309.31
2023-10-25T05:24:38.329Z,97306.31
2023-10-25T05:25:41.221Z,97310.09
2023-10-25T05:26:44.260Z,97312.47
2023-10-25T05:27:47.314Z,97310.91
2023-10-25T05:28:49.834Z,97317.88
2023-10-25T05:29:52.650Z,97309.78
2023-10-25T05:30:58.556Z,97301.72
2023-10-25T05:32:05.682Z,97310.09
2023-10-25T05:33:09.879Z,97303.63
2023-10-25T05:34:12.672Z,97302.34
2023-10-25T05:35:15.895Z,97303.94
2023-10-25T05:36:18.387Z,97309.31
2023-10-25T05:37:21.155Z,97300.44
2023-10-25T05:38:23.946Z,97297.75
2023-10-25T05:39:26.645Z,97294.25
2023-10-25T05:40:29.519Z,97299.66
2023-10-25T05:41:36.794Z,97295.84
2023-10-25T05:42:50.745Z,97293.50
2023-10-25T05:44:06.999Z,97290.03
2023-10-25T05:45:11.256Z,97302.50
2023-10-25T05:46:13.921Z,97290.47
2023-10-25T05:47:16.740Z,97294.25
2023-10-25T05:48:19.478Z,97296.47
2023-10-25T05:49:22.116Z,97298.06
2023-10-25T05:50:25.013Z,97301.53
2023-10-25T05:51:28.583Z,97294.91
2023-10-25T05:52:31.213Z,97301.06
2023-10-25T05:53:34.102Z,97298.69
2023-10-25T05:54:37.989Z,97291.69
2023-10-25T05:55:40.720Z,97289.50
2023-10-25T05:56:43.397Z,97293.00
2023-10-25T05:57:49.107Z,97291.69
2023-10-25T05:58:51.690Z,97288.41
2023-10-25T05:59:54.351Z,97287.59
2023-10-25T06:00:57.467Z,97287.94
2023-10-25T06:02:23.887Z,97287.63
2023-10-25T06:03:32.119Z,97290.47
2023-10-25T06:04:37.541Z,97283.50
2023-10-25T06:05:40.979Z,97288.41
2023-10-25T06:06:45.820Z,97280.31
2023-10-25T06:07:48.488Z,97287.09
2023-10-25T06:08:51.188Z,97283.63
2023-10-25T06:09:54.202Z,97283.94
2023-10-25T06:10:56.944Z,97282.03
2023-10-25T06:11:59.896Z,97289.00
2023-10-25T06:13:03.052Z,97288.22
2023-10-25T06:14:06.721Z,97285.22
2023-10-25T06:15:10.589Z,97283.13
2023-10-25T06:16:14.633Z,97282.03
2023-10-25T06:17:17.360Z,97272.06
2023-10-25T06:18:20.056Z,97279.34
2023-10-25T06:19:22.855Z,97287.09
2023-10-25T06:20:25.189Z,97275.84
2023-10-25T06:21:27.900Z,97275.06
2023-10-25T06:22:30.312Z,97276.16
2023-10-25T06:23:35.292Z,97281.72
2023-10-25T06:24:37.615Z,97273.97
2023-10-25T06:25:39.978Z,97274.75
2023-10-25T06:26:43.187Z,97272.06
2023-10-25T06:27:45.567Z,97265.88
2023-10-25T06:28:47.867Z,97266.19
2023-10-25T06:29:50.565Z,97269.69
2023-10-25T06:30:53.207Z,97267.78
2023-10-25T06:31:55.471Z,97265.88
2023-10-25T06:33:00.711Z,97265.88
2023-10-25T06:34:03.411Z,97263.97
2023-10-25T06:35:06.568Z,97265.88
2023-10-25T06:36:10.206Z,97265.41
2023-10-25T06:37:13.136Z,97256.22
2023-10-25T06:38:16.035Z,97264.31
2023-10-25T06:39:18.856Z,97262.72
2023-10-25T06:40:21.896Z,97260.03
2023-10-25T06:41:25.122Z,97256.53
2023-10-25T06:42:27.611Z,97258.91
2023-10-25T06:43:31.291Z,97258.44
2023-10-25T06:44:34.494Z,97248.47
2023-10-25T06:45:37.152Z,97260.03
2023-10-25T06:46:39.791Z,97250.38
2023-10-25T06:47:45.587Z,97253.22
2023-10-25T06:48:48.491Z,97261.28
2023-10-25T06:49:52.297Z,97249.25
2023-10-25T06:50:57.314Z,97250.53
2023-10-25T06:51:59.914Z,97248.63
2023-10-25T06:53:02.822Z,97247.03
2023-10-25T06:54:05.590Z,97247.03
2023-10-25T06:55:09.181Z,97237.84
2023-10-25T06:56:12.181Z,97233.59
2023-10-25T06:57:14.974Z,97241.66
2023-10-25T06:58:18.159Z,97232.78
2023-10-25T06:59:21.041Z,97242.44
2023-10-25T07:00:23.938Z,97229.78
2023-10-25T07:01:31.841Z,97226.81
2023-10-25T07:02:39.361Z,97226.00
2023-10-25T07:03:49.378Z,97232.03
2023-10-25T07:05:06.160Z,97232.50
2023-10-25T07:06:09.599Z,97226.19
2023-10-25T07:07:12.786Z,97223.31
2023-10-25T07:08:15.565Z,97223.47
2023-10-25T07:09:18.436Z,97221.09
2023-10-25T07:10:21.711Z,97210.34
2023-10-25T07:11:25.326Z,97211.44
2023-10-25T07:12:27.825Z,97202.59
2023-10-25T07:13:31.313Z,97195.59
2023-10-25T07:14:33.542Z,97194.19
2023-10-25T07:15:37.388Z,97193.88
2023-10-25T07:16:41.270Z,97189.28
2023-10-25T07:17:46.338Z,97198.94
2023-10-25T07:18:49.182Z,97187.69
2023-10-25T07:19:51.950Z,97191.97
2023-10-25T07:20:54.747Z,97188.97
2023-10-25T07:21:57.111Z,97192.44
2023-10-25T07:22:59.498Z,97188.66
2023-10-25T07:24:01.954Z,97187.06
2023-10-25T07:25:05.033Z,97192.91
2023-10-25T07:26:08.377Z,97184.53
2023-10-25T07:27:11.011Z,97186.09
2023-10-25T07:28:17.724Z,97186.94
2023-10-25T07:29:20.062Z,97186.94
2023-10-25T07:30:22.687Z,97185.31
2023-10-25T07:31:25.040Z,97180.72
2023-10-25T07:32:27.886Z,97193.91
2023-10-25T07:33:31.297Z,97188.50
2023-10-25T07:34:33.966Z,97184.72
2023-10-25T07:35:36.658Z,97184.72
2023-10-25T07:36:39.048Z,97179.00
2023-10-25T07:37:42.215Z,97179.00
2023-10-25T07:38:44.571Z,97181.72
2023-10-25T07:39:47.145Z,97181.69
2023-10-25T07:40:50.864Z,97177.75
2023-10-25T07:41:53.470Z,97177.44
2023-10-25T07:42:55.836Z,97176.31
2023-10-25T07:43:58.809Z,97169.81
2023-10-25T07:45:01.138Z,97164.13
2023-10-25T07:46:03.776Z,97167.59
2023-10-25T07:47:06.485Z,97169.97
2023-10-25T07:48:09.056Z,97175.47
2023-10-25T07:49:11.713Z,97174.56
2023-10-25T07:50:19.323Z,97176.78
2023-10-25T07:51:21.713Z,97175.03
2023-10-25T07:52:24.691Z,97177.44
2023-10-25T07:53:27.352Z,97174.44
2023-10-25T07:54:30.033Z,97180.31
2023-10-25T07:57:09.451Z,97171.91
2023-10-25T07:59:05.696Z,97162.91
2023-10-25T08:00:10.973Z,97158.63
2023-10-25T08:01:16.984Z,97157.22
2023-10-25T08:02:19.660Z,97157.50
2023-10-25T08:03:22.178Z,97160.53
2023-10-25T08:04:24.856Z,97154.03
2023-10-25T08:05:27.535Z,97154.03
2023-10-25T08:06:30.184Z,97152.94
2023-10-25T08:07:32.588Z,97156.09
2023-10-25T08:08:35.043Z,97154.53
2023-10-25T08:09:38.270Z,97156.09
2023-10-25T08:10:40.622Z,97153.41
2023-10-25T08:11:43.075Z,97154.22
2023-10-25T08:12:45.516Z,97149.63
2023-10-25T08:13:47.777Z,97148.97
2023-10-25T08:14:51.464Z,97160.53
2023-10-25T08:16:03.888Z,97150.41
2023-10-25T08:17:06.665Z,97153.72
2023-10-25T08:18:09.500Z,97145.97
2023-10-25T08:19:11.916Z,97143.75
2023-10-25T08:20:14.442Z,97144.84
2023-10-25T08:21:17.673Z,97142.63
2023-10-25T08:22:20.253Z,97138.06
2023-10-25T08:23:22.724Z,97140.75
2023-10-25T08:24:25.165Z,97148.19
2023-10-25T08:25:27.732Z,97145.03
2023-10-25T08:26:30.231Z,97150.88
2023-10-25T08:27:32.862Z,97146.28
2023-10-25T08:28:35.297Z,97140.91
2023-10-25T08:29:37.657Z,97145.97
2023-10-25T08:30:40.062Z,97144.38
2023-10-25T08:31:43.350Z,97147.56
2023-10-25T08:32:48.222Z,97151.50
2023-10-25T08:33:50.697Z,97148.03
2023-10-25T08:34:53.056Z,97145.03
2023-10-25T08:36:05.565Z,97146.28
2023-10-25T08:37:07.888Z,97141.06
2023-10-25T08:38:10.579Z,97138.81
2023-10-25T08:39:13.113Z,97138.03
2023-10-25T08:40:16.174Z,97138.22
2023-10-25T08:41:21.705Z,97134.56
2023-10-25T08:42:24.325Z,97132.19
2023-10-25T08:43:26.725Z,97134.56
2023-10-25T08:44:29.299Z,97125.34
2023-10-25T08:45:36.203Z,97118.84
2023-10-25T08:46:40.609Z,97116.03
2023-10-25T08:47:43.615Z,97119.19
2023-10-25T08:48:46.588Z,97120.75
2023-10-25T08:49:50.813Z,97115.06
2023-10-25T08:50:53.505Z,97112.06
2023-10-25T08:51:56.659Z,97106.50
2023-10-25T08:53:01.794Z,97111.25
2023-10-25T08:54:05.009Z,97117.13
2023-10-25T08:55:11.171Z,97111.88
2023-10-25T08:56:13.866Z,97111.75
2023-10-25T08:57:19.565Z,97109.50
2023-10-25T08:58:22.856Z,97109.84
2023-10-25T08:59:25.341Z,97107.13
2023-10-25T09:00:43.713Z,97106.34
2023-10-25T09:01:52.440Z,97102.69
2023-10-25T09:02:58.374Z,97101.09
2023-10-25T09:04:10.362Z,97087.44
2023-10-25T09:05:12.759Z,97088.09
2023-10-25T09:06:25.192Z,97086.84
2023-10-25T09:07:32.592Z,97087.94
2023-10-25T09:08:36.138Z,97088.56
2023-10-25T09:09:41.994Z,97084.28
2023-10-25T09:10:44.439Z,97085.41
2023-10-25T09:11:47.629Z,97086.53
2023-10-25T09:12:52.185Z,97080.00
2023-10-25T09:13:59.040Z,97086.38
2023-10-25T09:15:01.333Z,97083.97
2023-10-25T09:16:09.099Z,97072.41
2023-10-25T09:17:11.509Z,97073.97
2023-10-25T09:18:14.092Z,97081.28
2023-10-25T09:19:22.272Z,97069.09
2023-10-25T09:20:28.801Z,97068.44
2023-10-25T09:21:31.622Z,97069.69
2023-10-25T09:22:34.056Z,97079.06
2023-10-25T09:23:36.510Z,97079.38
2023-10-25T09:24:53.037Z,97077.63
2023-10-25T09:25:56.484Z,97080.78
2023-10-25T09:27:07.561Z,97080.78
2023-10-25T09:28:17.246Z,97069.22
2023-10-25T09:29:29.105Z,97067.19
2023-10-25T09:30:34.493Z,97072.72
2023-10-25T09:31:38.698Z,97064.00
2023-10-25T09:32:42.330Z,97064.94
2023-10-25T09:33:44.993Z,97076.19
2023-10-25T09:34:47.987Z,97065.41
2023-10-25T09:35:52.148Z,97072.38
2023-10-25T09:36:54.680Z,97069.38
2023-10-25T09:37:57.025Z,97067.94
2023-10-25T09:38:59.652Z,97067.13
2023-10-25T09:40:02.034Z,97060.94
2023-10-25T09:41:05.927Z,97065.75
2023-10-25T09:42:14.507Z,97066.06
2023-10-25T09:43:21.293Z,97065.88
2023-10-25T09:44:29.828Z,97073.03
2023-10-25T09:45:33.302Z,97061.13
2023-10-25T09:46:36.031Z,97060.00
2023-10-25T09:47:45.516Z,97059.72
2023-10-25T09:49:08.507Z,97058.38
2023-10-25T09:50:27.359Z,97072.19
2023-10-25T09:52:00.596Z,97060.63
2023-10-25T09:53:32.362Z,97057.91
2023-10-25T09:54:35.508Z,97055.41
2023-10-25T09:55:45.480Z,97058.72
2023-10-25T09:56:50.758Z,97051.44
2023-10-25T09:57:55.270Z,97051.44
2023-10-25T09:58:59.170Z,97049.06
2023-10-25T10:00:03.085Z,97044.47
2023-10-25T10:01:07.117Z,97046.38
2023-10-25T10:02:13.987Z,97036.88
2023-10-25T10:03:33.492Z,97034.44
2023-10-25T10:04:51.246Z,97031.91
2023-10-25T10:06:06.979Z,97026.03
2023-10-25T10:07:32.801Z,97030.59
2023-10-25T10:08:55.213Z,97031.09
2023-10-25T10:10:13.902Z,97029.03
2023-10-25T10:11:26.308Z,97025.41
2023-10-25T10:12:28.924Z,97021.63
2023-10-25T10:13:31.296Z,97018.47
2023-10-25T10:14:38.241Z,97019.72
2023-10-25T10:16:03.409Z,97013.97
2023-10-25T10:17:10.219Z,97013.22
2023-10-25T10:18:13.016Z,97013.88
2023-10-25T10:19:15.752Z,97013.41
2023-10-25T10:20:30.951Z,97016.03
2023-10-25T10:21:53.381Z,97012.75
2023-10-25T10:23:07.151Z,97015.09
2023-10-25T10:24:48.932Z,97005.22
2023-10-25T10:25:53.658Z,97010.34
2023-10-25T10:26:55.968Z,97007.50
2023-10-25T10:28:05.223Z,96998.75
2023-10-25T10:29:33.373Z,96994.44
2023-10-25T10:30:38.520Z,96993.69
2023-10-25T10:31:58.248Z,96979.03
2023-10-25T10:33:03.419Z,96978.00
2023-10-25T10:34:06.587Z,96976.72
2023-10-25T10:35:25.945Z,96966.69
2023-10-25T10:36:31.780Z,96968.00
2023-10-25T10:37:34.429Z,96966.38
2023-10-25T10:39:15.105Z,96965.72
2023-10-25T10:40:17.816Z,96966.56
2023-10-25T10:41:29.827Z,96962.88
2023-10-25T10:42:32.581Z,96965.75
2023-10-25T10:43:35.368Z,96968.78
2023-10-25T10:44:39.447Z,96966.88
2023-10-25T10:45:49.778Z,96964.66
2023-10-25T10:47:02.243Z,96959.84
2023-10-25T10:48:21.280Z,96950.63
2023-10-25T10:49:28.910Z,96939.59
2023-10-25T10:50:31.446Z,96932.63
2023-10-25T10:51:33.776Z,96932.94
2023-10-25T10:52:36.124Z,96933.41
2023-10-25T10:53:39.888Z,96928.34
2023-10-25T10:54:42.480Z,96927.22
2023-10-25T10:55:47.256Z,96925.66
2023-10-25T10:56:50.000Z,96912.16
2023-10-25T10:58:06.819Z,96911.03
2023-10-25T10:59:11.305Z,96913.88
2023-10-25T11:00:17.771Z,96899.59
2023-10-25T11:01:20.564Z,96902.63
2023-10-25T11:02:23.159Z,96900.25
2023-10-25T11:03:29.252Z,96894.53
2023-10-25T11:04:31.728Z,96889.94
2023-10-25T11:05:34.111Z,96897.22
2023-10-25T11:06:36.908Z,96884.88
2023-10-25T11:07:39.471Z,96882.97
2023-10-25T11:08:43.303Z,96876.78
2023-10-25T11:09:46.525Z,96879.16
2023-10-25T11:10:49.255Z,96872.63
2023-10-25T11:11:52.240Z,96873.41
2023-10-25T11:12:59.792Z,96866.47
2023-10-25T11:14:02.582Z,96870.72
2023-10-25T11:15:08.386Z,96875.13
2023-10-25T11:16:11.486Z,96874.22
2023-10-25T11:17:14.427Z,96862.63
2023-10-25T11:18:17.104Z,96859.59
2023-10-25T11:19:19.662Z,96864.22
2023-10-25T11:20:22.052Z,96867.69
2023-10-25T11:21:24.700Z,96856.91
2023-10-25T11:22:27.394Z,96845.78
2023-10-25T11:23:30.227Z,96837.72
2023-10-25T11:24:36.808Z,96839.75
2023-10-25T11:25:39.576Z,96841.69
2023-10-25T11:26:43.242Z,96833.59
2023-10-25T11:27:46.147Z,96822.00
2023-10-25T11:28:48.499Z,96825.50
2023-10-25T11:29:51.859Z,96827.72
2023-10-25T11:31:01.580Z,96824.38
2023-10-25T11:32:07.354Z,96825.16
2023-10-25T11:33:11.001Z,96822.81
2023-10-25T11:34:13.490Z,96825.16
2023-10-25T11:35:43.127Z,96822.63
2023-10-25T11:36:45.592Z,96813.38
2023-10-25T11:37:48.081Z,96814.84
2023-10-25T11:38:50.711Z,96823.25
2023-10-25T11:40:03.502Z,96818.59
2023-10-25T11:41:05.967Z,96828.31
2023-10-25T11:42:08.303Z,96816.75
2023-10-25T11:43:11.786Z,96818.66
2023-10-25T11:44:14.465Z,96812.13
2023-10-25T11:45:19.178Z,96814.50
2023-10-25T11:46:21.946Z,96803.72
2023-10-25T11:47:24.739Z,96791.34
2023-10-25T11:48:27.183Z,96795.63
2023-10-25T11:49:29.634Z,96791.00
2023-10-25T11:50:32.392Z,96793.72
2023-10-25T11:51:36.350Z,96791.47
2023-10-25T11:52:38.780Z,96784.84
2023-10-25T11:53:41.463Z,96787.97
2023-10-25T11:54:43.870Z,96779.88
2023-10-25T11:55:46.386Z,96779.88
2023-10-25T11:56:49.700Z,96778.31
2023-10-25T11:57:52.171Z,96778.78
2023-10-25T11:58:54.773Z,96776.06
2023-10-25T11:59:57.729Z,96770.34
2023-10-25T12:01:09.244Z,96773.38
2023-10-25T12:02:13.276Z,96767.34
2023-10-25T12:03:16.006Z,96758.91
2023-10-25T12:04:18.679Z,96752.72
2023-10-25T12:05:21.466Z,96748.56
2023-10-25T12:06:25.326Z,96751.72
2023-10-25T12:07:28.572Z,96743.19
2023-10-25T12:08:31.146Z,96745.88
2023-10-25T12:09:33.867Z,96744.75
2023-10-25T12:10:36.149Z,96741.28
2023-10-25T12:11:40.583Z,96742.06
2023-10-25T12:12:45.119Z,96737.13
2023-10-25T12:13:47.702Z,96741.72
2023-10-25T12:14:51.378Z,96731.72
2023-10-25T12:15:53.909Z,96730.94
2023-10-25T12:16:56.355Z,96726.66
2023-10-25T12:17:58.753Z,96734.41
2023-10-25T12:19:01.171Z,96720.16
2023-10-25T12:20:18.292Z,96718.69
2023-10-25T12:21:25.537Z,96731.53
2023-10-25T12:22:28.177Z,96726.00
2023-10-25T12:23:30.965Z,96724.06
2023-10-25T12:24:34.224Z,96721.84
2023-10-25T12:25:38.925Z,96725.00
2023-10-25T12:26:41.952Z,96720.75
2023-10-25T12:27:46.143Z,96723.78
2023-10-25T12:28:48.736Z,96709.81
2023-10-25T12:29:51.470Z,96705.97
2023-10-25T12:30:55.675Z,96700.94
2023-10-25T12:31:59.209Z,96703.38
2023-10-25T12:33:01.824Z,96702.28
2023-10-25T12:34:04.349Z,96706.66
2023-10-25T12:35:07.516Z,96704.06
2023-10-25T12:36:09.899Z,96700.59